createdAt,value
2018-03-23T00:00:20.921Z,7.03
2018-03-23T00:02:48.452Z,8.00
2018-03-23T00:05:15.963Z,6.60
2018-03-23T00:07:43.457Z,7.18
2018-03-23T00:10:10.999Z,6.25
2018-03-23T00:12:38.462Z,6.85
2018-03-23T00:15:05.930Z,6.35
2018-03-23T00:17:33.425Z,5.75
2018-03-23T00:20:01.023Z,5.22
2018-03-23T00:22:28.567Z,6.03
2018-03-23T00:24:56.055Z,4.32
2018-03-23T00:27:23.519Z,5.65
2018-03-23T00:29:51.020Z,3.50
2018-03-23T00:32:18.483Z,3.67
2018-03-23T00:34:45.995Z,3.05
2018-03-23T00:37:13.490Z,2.50
2018-03-23T00:39:41.004Z,2.20
2018-03-23T00:42:08.794Z,2.05
2018-03-23T00:44:36.293Z,1.75
2018-03-23T00:47:16.584Z,1.90
2018-03-23T00:49:44.063Z,1.90
2018-03-23T00:52:12.286Z,1.85
2018-03-23T00:54:39.777Z,1.75
2018-03-23T00:57:07.242Z,2.00
2018-03-23T00:59:34.870Z,1.92
2018-03-23T01:02:02.322Z,1.85
2018-03-23T01:04:29.790Z,1.92
2018-03-23T01:06:57.245Z,1.80
2018-03-23T01:09:24.730Z,1.67
2018-03-23T01:11:52.230Z,2.50
2018-03-23T01:14:19.748Z,2.00
2018-03-23T01:16:47.299Z,2.60
2018-03-23T01:19:15.575Z,2.80
2018-03-23T01:21:43.132Z,2.35
2018-03-23T01:24:10.612Z,2.37
2018-03-23T01:26:38.097Z,2.53
2018-03-23T01:29:05.576Z,2.78
2018-03-23T01:31:33.084Z,3.05
2018-03-23T01:34:00.564Z,3.17
2018-03-23T01:36:28.110Z,2.90
2018-03-23T01:38:55.566Z,2.90
2018-03-23T01:41:23.274Z,2.75
2018-03-23T01:43:50.738Z,3.40
2018-03-23T01:46:18.242Z,3.12
2018-03-23T01:48:46.522Z,2.28
2018-03-23T01:51:14.032Z,3.08
2018-03-23T01:53:43.349Z,3.72
2018-03-23T01:56:10.830Z,3.35
2018-03-23T01:58:39.063Z,2.70
2018-03-23T02:01:06.547Z,2.95
2018-03-23T02:03:34.090Z,2.22
2018-03-23T02:06:01.581Z,2.95
2018-03-23T02:08:29.815Z,2.97
2018-03-23T02:10:57.321Z,3.25
2018-03-23T02:13:25.555Z,3.70
2018-03-23T02:15:53.022Z,3.20
2018-03-23T02:18:20.474Z,3.83
2018-03-23T02:20:47.960Z,3.78
2018-03-23T02:23:15.458Z,4.68
2018-03-23T02:25:42.979Z,4.40
2018-03-23T02:28:11.205Z,4.57
2018-03-23T02:30:38.691Z,4.35
2018-03-23T02:33:06.167Z,3.80
2018-03-23T02:35:33.621Z,4.87
2018-03-23T02:38:01.897Z,3.35
2018-03-23T02:40:30.130Z,3.30
2018-03-23T02:42:57.640Z,3.85
2018-03-23T02:45:25.096Z,2.90
2018-03-23T02:47:52.543Z,2.90
2018-03-23T02:50:20.078Z,3.20
2018-03-23T02:52:47.570Z,2.85
2018-03-23T02:55:15.064Z,3.22
2018-03-23T02:57:42.559Z,2.92
2018-03-23T03:00:10.138Z,4.05
2018-03-23T03:02:37.603Z,3.67
2018-03-23T03:05:05.049Z,3.75
2018-03-23T03:07:32.654Z,3.80
2018-03-23T03:10:00.160Z,3.97
2018-03-23T03:12:27.676Z,4.00
2018-03-23T03:14:55.174Z,3.42
2018-03-23T03:17:22.677Z,3.95
2018-03-23T03:19:50.341Z,3.95
2018-03-23T03:22:18.028Z,4.50
2018-03-23T03:24:45.522Z,4.05
2018-03-23T03:27:13.010Z,3.47
2018-03-23T03:29:40.932Z,3.90
2018-03-23T03:32:08.433Z,3.70
2018-03-23T03:34:35.920Z,3.47
2018-03-23T03:37:03.384Z,3.50
2018-03-23T03:39:30.943Z,3.97
2018-03-23T03:41:58.406Z,3.97
2018-03-23T03:44:25.962Z,3.45
2018-03-23T03:46:53.434Z,3.65
2018-03-23T03:49:20.962Z,4.80
2018-03-23T03:51:48.454Z,4.85
2018-03-23T03:54:15.953Z,3.50
2018-03-23T03:56:43.439Z,4.40
2018-03-23T03:59:10.957Z,4.40
2018-03-23T04:01:38.445Z,5.47
2018-03-23T04:04:05.940Z,4.57
2018-03-23T04:06:33.417Z,4.55
2018-03-23T04:09:00.905Z,5.40
2018-03-23T04:11:28.414Z,6.10
2018-03-23T04:13:55.892Z,5.62
2018-03-23T04:16:23.391Z,5.75
2018-03-23T04:18:50.890Z,5.65
2018-03-23T04:21:19.146Z,6.47
2018-03-23T04:23:46.602Z,5.95
2018-03-23T04:26:14.101Z,5.37
2018-03-23T04:28:41.595Z,4.85
2018-03-23T04:31:09.123Z,5.20
2018-03-23T04:33:36.611Z,4.28
2018-03-23T04:36:04.127Z,4.80
2018-03-23T04:38:31.615Z,5.30
2018-03-23T04:40:59.227Z,5.43
2018-03-23T04:43:26.678Z,6.47
2018-03-23T04:45:54.218Z,4.87
2018-03-23T04:48:21.701Z,5.93
2018-03-23T04:50:49.948Z,5.75
2018-03-23T04:53:17.454Z,5.43
2018-03-23T04:55:44.918Z,5.95
2018-03-23T04:58:12.412Z,4.62
2018-03-23T05:00:40.030Z,5.12
2018-03-23T05:03:07.624Z,4.78
2018-03-23T05:05:35.108Z,4.60
2018-03-23T05:08:02.629Z,4.87
2018-03-23T05:10:30.119Z,3.85
2018-03-23T05:12:57.590Z,4.62
2018-03-23T05:15:25.050Z,4.32
2018-03-23T05:17:53.327Z,4.00
2018-03-23T05:20:20.814Z,4.45
2018-03-23T05:22:48.300Z,3.95
2018-03-23T05:25:15.774Z,4.20
2018-03-23T05:27:44.305Z,4.97
2018-03-23T05:30:11.851Z,3.92
2018-03-23T05:32:39.325Z,5.00
2018-03-23T05:35:06.809Z,5.60
2018-03-23T05:37:34.283Z,4.35
2018-03-23T05:40:01.755Z,4.95
2018-03-23T05:42:29.257Z,5.25
2018-03-23T05:44:56.818Z,4.15
2018-03-23T05:47:24.325Z,5.03
2018-03-23T05:49:51.815Z,4.90
2018-03-23T05:52:19.340Z,5.50
2018-03-23T05:54:46.926Z,5.43
2018-03-23T05:57:15.158Z,5.90
2018-03-23T05:59:42.628Z,5.65
2018-03-23T06:02:10.094Z,6.47
2018-03-23T06:04:38.491Z,5.10
2018-03-23T06:07:06.263Z,5.22
2018-03-23T06:09:33.741Z,5.05
2018-03-23T06:12:01.255Z,5.45
2018-03-23T06:14:28.745Z,5.12
2018-03-23T06:16:57.029Z,5.62
2018-03-23T06:19:24.578Z,6.12
2018-03-23T06:21:52.071Z,6.20
2018-03-23T06:24:19.566Z,5.20
2018-03-23T06:26:47.087Z,5.03
2018-03-23T06:29:14.556Z,5.90
2018-03-23T06:31:42.032Z,5.10
2018-03-23T06:34:09.530Z,5.30
2018-03-23T06:36:37.061Z,5.32
2018-03-23T06:39:04.567Z,5.62
2018-03-23T06:41:32.039Z,5.90
2018-03-23T06:44:00.544Z,6.30
2018-03-23T06:46:28.010Z,5.50
2018-03-23T06:48:55.530Z,6.25
2018-03-23T06:51:23.112Z,5.25
2018-03-23T06:53:50.617Z,5.35
2018-03-23T06:56:18.086Z,6.60
2018-03-23T06:58:45.880Z,6.30
2018-03-23T07:01:13.392Z,6.22
2018-03-23T07:03:40.894Z,5.07
2018-03-23T07:06:08.372Z,4.65
2018-03-23T07:08:35.830Z,6.00
2018-03-23T07:11:03.300Z,5.18
2018-03-23T07:13:30.748Z,5.62
2018-03-23T07:15:58.755Z,5.70
2018-03-23T07:18:26.428Z,6.30
2018-03-23T07:20:53.905Z,6.00
2018-03-23T07:23:21.419Z,5.78
2018-03-23T07:25:48.922Z,5.57
2018-03-23T07:28:16.471Z,6.53
2018-03-23T07:30:43.974Z,6.45
2018-03-23T07:33:11.467Z,7.30
2018-03-23T07:35:39.705Z,7.00
2018-03-23T07:38:07.284Z,6.95
2018-03-23T07:40:34.792Z,6.03
2018-03-23T07:43:02.287Z,6.53
2018-03-23T07:45:30.569Z,5.87
2018-03-23T07:47:58.163Z,5.65
2018-03-23T07:50:25.736Z,5.25
2018-03-23T07:52:53.242Z,6.00
2018-03-23T07:55:20.700Z,6.80
2018-03-23T07:57:48.167Z,6.18
2018-03-23T08:00:16.527Z,3.85
2018-03-23T08:02:44.804Z,3.12
2018-03-23T08:05:12.312Z,5.15
2018-03-23T08:07:39.805Z,4.32
2018-03-23T08:10:07.301Z,4.05
2018-03-23T08:12:35.654Z,4.15
2018-03-23T08:15:03.139Z,3.08
2018-03-23T08:17:30.688Z,3.10
2018-03-23T08:19:58.241Z,3.15
2018-03-23T08:22:25.773Z,3.35
2018-03-23T08:24:53.306Z,3.62
2018-03-23T08:27:20.820Z,3.03
2018-03-23T08:29:48.284Z,3.65
2018-03-23T08:32:16.662Z,3.35
2018-03-23T08:34:44.208Z,3.75
2018-03-23T08:37:12.514Z,3.40
2018-03-23T08:39:40.107Z,3.47
2018-03-23T08:42:07.675Z,3.78
2018-03-23T08:44:35.971Z,3.17
2018-03-23T08:47:03.487Z,3.12
2018-03-23T08:49:30.987Z,3.08
2018-03-23T08:51:58.466Z,3.85
2018-03-23T08:54:26.035Z,3.60
2018-03-23T08:56:53.563Z,3.70
2018-03-23T08:59:21.094Z,3.35
2018-03-23T09:01:48.583Z,3.45
2018-03-23T09:04:16.095Z,3.67
2018-03-23T09:06:43.603Z,3.53
2018-03-23T09:09:11.158Z,4.60
2018-03-23T09:11:39.667Z,4.62
2018-03-23T09:14:07.183Z,4.62
2018-03-23T09:16:35.210Z,5.85
2018-03-23T09:19:02.849Z,6.00
2018-03-23T09:21:31.049Z,5.93
2018-03-23T09:23:58.687Z,5.75
2018-03-23T09:26:26.232Z,6.20
2018-03-23T09:28:54.484Z,5.90
2018-03-23T09:31:22.113Z,6.55
2018-03-23T09:33:49.876Z,6.07
2018-03-23T09:36:17.449Z,6.62
2018-03-23T09:38:45.174Z,5.75
2018-03-23T09:41:12.824Z,5.40
2018-03-23T09:43:40.376Z,6.10
2018-03-23T09:46:08.656Z,5.68
2018-03-23T09:48:36.175Z,6.40
2018-03-23T09:51:03.645Z,6.00
2018-03-23T09:53:31.286Z,6.32
2018-03-23T09:55:58.824Z,7.10
2018-03-23T09:58:26.335Z,8.07
2018-03-23T10:03:39.857Z,9.10
2018-03-23T10:06:07.476Z,9.93
2018-03-23T10:08:35.022Z,10.60
2018-03-23T10:11:02.640Z,10.75
2018-03-23T10:13:30.290Z,11.00
2018-03-23T10:15:57.806Z,10.75
2018-03-23T10:18:25.325Z,12.57
2018-03-23T10:20:53.259Z,10.82
2018-03-23T10:23:20.767Z,10.55
2018-03-23T10:25:48.304Z,11.63
2018-03-23T10:28:15.932Z,11.85
2018-03-23T10:30:43.449Z,11.70
2018-03-23T10:33:10.931Z,13.65
2018-03-23T10:35:38.579Z,11.75
2018-03-23T10:38:06.094Z,13.43
2018-03-23T10:40:33.603Z,14.05
2018-03-23T10:43:01.154Z,13.10
2018-03-23T10:45:28.706Z,13.30
2018-03-23T10:47:56.182Z,13.98
2018-03-23T10:50:23.702Z,13.88
2018-03-23T10:52:51.225Z,14.70
2018-03-23T10:55:18.842Z,13.85
2018-03-23T10:57:46.320Z,13.05
2018-03-23T11:00:13.775Z,12.55
2018-03-23T11:02:56.366Z,14.60
2018-03-23T11:05:23.885Z,13.90
2018-03-23T11:07:51.422Z,14.40
2018-03-23T11:10:18.942Z,12.60
2018-03-23T11:12:47.219Z,11.60
2018-03-23T11:15:14.745Z,11.70
2018-03-23T11:17:42.212Z,12.60
2018-03-23T11:20:10.498Z,10.70
2018-03-23T11:22:38.068Z,11.27
2018-03-23T11:25:05.565Z,11.57
2018-03-23T11:27:33.065Z,11.68
2018-03-23T11:30:00.583Z,10.63
2018-03-23T11:32:28.117Z,11.12
2018-03-23T11:34:55.663Z,11.02
2018-03-23T11:37:23.168Z,10.52
2018-03-23T11:39:50.676Z,10.57
2018-03-23T11:42:18.203Z,11.95
2018-03-23T11:44:45.820Z,11.75
2018-03-23T11:47:13.327Z,12.40
2018-03-23T11:49:40.827Z,12.70
2018-03-23T11:52:08.330Z,11.30
2018-03-23T11:54:35.852Z,9.45
2018-03-23T11:57:03.304Z,9.27
2018-03-23T11:59:30.857Z,10.73
2018-03-23T12:01:58.357Z,10.95
2018-03-23T12:04:25.826Z,10.48
2018-03-23T12:06:53.368Z,10.80
2018-03-23T12:09:20.884Z,10.23
2018-03-23T12:11:48.402Z,11.95
2018-03-23T12:14:15.909Z,11.60
2018-03-23T12:16:43.419Z,10.10
2018-03-23T12:19:10.967Z,10.10
2018-03-23T12:21:38.490Z,10.80
2018-03-23T12:24:06.039Z,10.65
2018-03-23T12:26:33.525Z,10.13
2018-03-23T12:29:01.043Z,12.05
2018-03-23T12:31:29.304Z,10.13
2018-03-23T12:33:56.779Z,11.15
2018-03-23T12:36:24.249Z,10.70
2018-03-23T12:38:51.764Z,10.20
2018-03-23T12:41:19.366Z,11.48
2018-03-23T12:43:46.862Z,11.65
2018-03-23T12:46:14.361Z,12.30
2018-03-23T12:48:42.615Z,12.70
2018-03-23T12:51:10.102Z,12.15
2018-03-23T12:53:38.337Z,12.88
2018-03-23T12:56:05.834Z,12.65
2018-03-23T12:58:33.315Z,12.20
2018-03-23T13:01:00.841Z,12.70
2018-03-23T13:03:29.117Z,13.18
2018-03-23T13:05:56.645Z,12.60
2018-03-23T13:08:24.087Z,13.13
2018-03-23T13:10:51.563Z,12.07
2018-03-23T13:13:19.042Z,12.27
2018-03-23T13:15:46.571Z,11.23
2018-03-23T13:18:14.073Z,11.85
2018-03-23T13:20:41.567Z,10.77
2018-03-23T13:23:09.109Z,12.77
2018-03-23T13:25:36.653Z,13.02
2018-03-23T13:28:04.200Z,11.65
2018-03-23T13:30:31.762Z,10.57
2018-03-23T13:32:59.315Z,11.07
2018-03-23T13:35:26.819Z,12.18
2018-03-23T13:37:54.342Z,12.00
2018-03-23T13:40:21.858Z,11.48
2018-03-23T13:42:49.456Z,11.10
2018-03-23T13:45:16.968Z,10.38
2018-03-23T13:47:44.448Z,9.60
2018-03-23T13:50:12.054Z,9.63
2018-03-23T13:52:39.486Z,10.32
2018-03-23T13:55:07.742Z,9.27
2018-03-23T13:57:35.199Z,8.95
2018-03-23T14:00:02.729Z,9.48
2018-03-23T14:02:30.239Z,8.13
2018-03-23T14:04:57.702Z,8.45
2018-03-23T14:07:25.195Z,8.73
2018-03-23T14:09:52.671Z,8.38
2018-03-23T14:12:20.264Z,8.80
2018-03-23T14:14:47.766Z,8.30
2018-03-23T14:17:15.351Z,7.25
2018-03-23T14:19:42.861Z,9.00
2018-03-23T14:22:10.309Z,6.90
2018-03-23T14:24:37.901Z,8.05
2018-03-23T14:27:05.420Z,9.10
2018-03-23T14:29:32.875Z,8.75
2018-03-23T14:32:00.394Z,8.32
2018-03-23T14:34:27.959Z,8.50
2018-03-23T14:36:55.435Z,9.13
2018-03-23T14:39:23.677Z,8.52
2018-03-23T14:41:51.187Z,7.80
2018-03-23T14:44:18.651Z,6.28
2018-03-23T14:46:46.114Z,6.90
2018-03-23T14:49:13.612Z,7.43
2018-03-23T14:51:41.086Z,7.18
2018-03-23T14:54:08.592Z,7.65
2018-03-23T14:56:36.074Z,7.90
2018-03-23T14:59:09.178Z,8.65
2018-03-23T15:01:36.602Z,7.60
2018-03-23T15:04:04.045Z,7.07
2018-03-23T15:06:31.648Z,7.62
2018-03-23T15:08:59.131Z,7.20
2018-03-23T15:11:27.407Z,7.60
2018-03-23T15:13:55.654Z,7.82
2018-03-23T15:16:23.138Z,8.45
2018-03-23T15:18:50.600Z,7.93
2018-03-23T15:21:18.120Z,7.22
2018-03-23T15:23:45.602Z,6.90
2018-03-23T15:26:13.095Z,7.65
2018-03-23T15:28:40.577Z,6.82
2018-03-23T15:31:08.054Z,6.78
2018-03-23T15:33:35.538Z,6.62
2018-03-23T15:36:03.065Z,5.97
2018-03-23T15:38:30.562Z,6.25
2018-03-23T15:40:58.043Z,7.43
2018-03-23T15:43:25.508Z,7.70
2018-03-23T15:45:53.022Z,7.20
2018-03-23T15:48:20.518Z,6.57
2018-03-23T15:50:47.966Z,7.03
2018-03-23T15:53:15.413Z,7.30
2018-03-23T15:55:43.726Z,7.05
2018-03-23T15:58:11.231Z,7.47
2018-03-23T16:00:38.701Z,6.78
2018-03-23T16:03:06.196Z,6.62
2018-03-23T16:05:33.662Z,7.00
2018-03-23T16:08:01.115Z,7.15
2018-03-23T16:10:28.602Z,8.55
2018-03-23T16:12:56.080Z,8.50
2018-03-23T16:15:23.528Z,8.60
2018-03-23T16:17:51.019Z,7.97
2018-03-23T16:20:18.715Z,8.07
2018-03-23T16:22:46.187Z,7.75
2018-03-23T16:25:13.645Z,7.50
2018-03-23T16:27:41.111Z,7.40
2018-03-23T16:30:08.590Z,7.82
2018-03-23T16:32:36.817Z,9.15
2018-03-23T16:35:04.267Z,8.05
2018-03-23T16:37:31.821Z,8.65
2018-03-23T16:39:59.303Z,8.82
2018-03-23T16:42:26.773Z,7.75
2018-03-23T16:44:54.255Z,6.47
2018-03-23T16:47:23.969Z,8.85
2018-03-23T16:49:51.449Z,8.40
2018-03-23T16:52:18.921Z,8.00
2018-03-23T16:54:46.388Z,8.15
2018-03-23T16:57:13.887Z,8.32
2018-03-23T16:59:42.111Z,8.90
2018-03-23T17:02:09.599Z,7.05
2018-03-23T17:04:37.066Z,8.30
2018-03-23T17:07:04.591Z,9.30
2018-03-23T17:09:32.109Z,7.95
2018-03-23T17:11:59.605Z,8.13
2018-03-23T17:14:27.886Z,8.77
2018-03-23T17:16:55.385Z,8.60
2018-03-23T17:19:23.660Z,7.82
2018-03-23T17:21:51.164Z,8.10
2018-03-23T17:24:18.671Z,8.73
2018-03-23T17:26:46.147Z,8.63
2018-03-23T17:29:13.640Z,8.85
2018-03-23T17:31:41.143Z,7.43
2018-03-23T17:34:08.715Z,8.85
2018-03-23T17:36:36.175Z,8.40
2018-03-23T17:39:03.672Z,8.15
2018-03-23T17:41:31.199Z,9.00
2018-03-23T17:43:59.465Z,9.13
2018-03-23T17:46:27.348Z,9.18
2018-03-23T17:52:09.597Z,8.10
2018-03-23T17:54:38.168Z,9.52
2018-03-23T17:57:10.551Z,9.23
2018-03-23T17:59:38.056Z,9.82
2018-03-23T18:02:05.551Z,7.85
2018-03-23T18:04:33.028Z,9.18
2018-03-23T18:07:00.498Z,9.50
2018-03-23T18:09:27.991Z,9.23
2018-03-23T18:11:58.634Z,9.55
2018-03-23T18:14:26.195Z,8.90
2018-03-23T18:16:53.690Z,8.75
2018-03-23T18:19:21.234Z,9.13
2018-03-23T18:21:48.758Z,8.90
2018-03-23T18:24:16.258Z,10.35
2018-03-23T18:26:43.736Z,9.05
2018-03-23T18:29:11.207Z,8.50
2018-03-23T18:31:38.708Z,9.25
2018-03-23T18:34:06.169Z,9.25
2018-03-23T18:36:34.011Z,8.77
2018-03-23T18:39:02.287Z,9.55
2018-03-23T18:41:31.227Z,9.27
2018-03-23T18:43:58.689Z,9.60
2018-03-23T18:46:26.146Z,9.73
2018-03-23T18:48:53.586Z,9.45
2018-03-23T18:51:21.058Z,10.30
2018-03-23T18:53:48.518Z,10.10
2018-03-23T18:56:16.002Z,10.77
2018-03-23T18:58:44.456Z,9.70
2018-03-23T19:01:12.096Z,10.95
2018-03-23T19:03:39.582Z,11.80
2018-03-23T19:06:07.115Z,11.68
2018-03-23T19:08:34.602Z,11.93
2018-03-23T19:11:02.157Z,13.52
2018-03-23T19:13:29.661Z,12.65
2018-03-23T19:15:57.878Z,12.18
2018-03-23T19:18:25.379Z,10.95
2018-03-23T19:20:53.669Z,11.10
2018-03-23T19:23:21.151Z,11.48
2018-03-23T19:25:48.639Z,10.80
2018-03-23T19:28:16.167Z,10.93
2018-03-23T19:30:43.700Z,11.90
2018-03-23T19:33:11.296Z,10.48
2018-03-23T19:35:38.795Z,10.85
2018-03-23T19:38:06.275Z,12.05
2018-03-23T19:40:33.767Z,11.27
2018-03-23T19:43:01.397Z,11.43
2018-03-23T19:45:28.886Z,11.05
2018-03-23T19:47:56.367Z,11.70
2018-03-23T19:50:23.850Z,10.57
2018-03-23T19:52:51.468Z,11.15
2018-03-23T19:55:18.946Z,11.12
2018-03-23T19:57:46.502Z,11.00
2018-03-23T20:00:14.051Z,11.93
2018-03-23T20:02:41.603Z,11.95
2018-03-23T20:05:09.214Z,13.18
2018-03-23T20:07:36.734Z,11.65
2018-03-23T20:10:04.227Z,13.60
2018-03-23T20:12:31.732Z,11.15
2018-03-23T20:14:59.243Z,12.05
2018-03-23T20:17:33.778Z,11.27
2018-03-23T20:20:02.058Z,12.05
2018-03-23T20:22:29.571Z,12.02
2018-03-23T20:24:57.168Z,12.30
2018-03-23T20:27:30.934Z,11.30
2018-03-23T20:29:58.459Z,12.23
2018-03-23T20:32:31.726Z,11.60
2018-03-23T20:35:00.112Z,11.40
2018-03-23T20:37:27.621Z,12.02
2018-03-23T20:39:55.096Z,12.07
2018-03-23T20:42:22.575Z,10.70
2018-03-23T20:44:50.991Z,10.90
2018-03-23T20:47:18.484Z,11.25
2018-03-23T20:49:46.001Z,10.80
2018-03-23T20:52:14.820Z,9.98
2018-03-23T20:54:44.741Z,11.23
2018-03-23T20:57:12.271Z,11.63
2018-03-23T20:59:39.825Z,11.15
2018-03-23T21:02:07.320Z,10.80
2018-03-23T21:04:34.794Z,12.10
2018-03-23T21:07:02.362Z,11.15
2018-03-23T21:09:30.842Z,11.30
2018-03-23T21:11:58.910Z,12.63
2018-03-23T21:14:26.459Z,10.73
2018-03-23T21:16:54.713Z,11.63
2018-03-23T21:19:22.485Z,11.70
2018-03-23T21:21:50.004Z,11.38
2018-03-23T21:24:17.487Z,10.13
2018-03-23T21:26:45.008Z,10.05
2018-03-23T21:29:12.576Z,10.23
2018-03-23T21:31:40.120Z,10.68
2018-03-23T21:34:07.582Z,9.95
2018-03-23T21:36:35.119Z,11.35
2018-03-23T21:39:02.623Z,9.25
2018-03-23T21:41:30.189Z,9.05
2018-03-23T21:43:58.542Z,10.10
2018-03-23T21:46:26.075Z,9.50
2018-03-23T21:48:53.579Z,11.85
2018-03-23T21:51:21.067Z,11.07
2018-03-23T21:53:48.530Z,9.90
2018-03-23T21:56:16.014Z,10.18
2018-03-23T21:58:43.480Z,10.05
2018-03-23T22:01:11.181Z,9.55
2018-03-23T22:03:38.753Z,10.75
2018-03-23T22:06:06.599Z,9.38
2018-03-23T22:08:34.091Z,9.82
2018-03-23T22:11:01.551Z,10.30
2018-03-23T22:13:30.003Z,9.20
2018-03-23T22:15:57.447Z,9.25
2018-03-23T22:18:24.927Z,9.07
2018-03-23T22:20:52.570Z,9.73
2018-03-23T22:23:20.039Z,9.38
2018-03-23T22:25:47.546Z,9.60
2018-03-23T22:28:15.002Z,7.80
2018-03-23T22:30:42.482Z,7.53
2018-03-23T22:33:10.009Z,9.18
2018-03-23T22:35:37.493Z,9.32
2018-03-23T22:38:04.982Z,8.80
2018-03-23T22:40:32.465Z,8.65
2018-03-23T22:43:00.759Z,8.35
2018-03-23T22:45:28.262Z,8.70
2018-03-23T22:47:55.754Z,9.00
2018-03-23T22:50:23.228Z,9.48
2018-03-23T22:52:50.711Z,7.95
2018-03-23T22:55:18.201Z,8.40
2018-03-23T22:57:45.682Z,7.72
2018-03-23T23:00:13.142Z,8.98
2018-03-23T23:02:41.383Z,9.43
2018-03-23T23:05:08.891Z,7.85
2018-03-23T23:07:36.392Z,8.45
2018-03-23T23:10:03.863Z,8.02
2018-03-23T23:12:31.373Z,8.07
2018-03-23T23:14:58.858Z,9.60
2018-03-23T23:17:26.364Z,8.13
2018-03-23T23:19:54.614Z,8.95
2018-03-23T23:22:22.097Z,8.50
2018-03-23T23:24:50.343Z,8.80
2018-03-23T23:27:17.826Z,7.87
2018-03-23T23:29:45.323Z,7.50
2018-03-23T23:32:12.810Z,8.13
2018-03-23T23:34:40.290Z,8.20
2018-03-23T23:37:07.909Z,8.13
2018-03-23T23:39:35.366Z,8.15
2018-03-23T23:42:02.877Z,7.72
2018-03-23T23:44:30.354Z,8.25
2018-03-23T23:46:57.834Z,7.68
2018-03-23T23:49:25.353Z,9.20
2018-03-23T23:51:53.612Z,8.45
2018-03-23T23:54:21.082Z,8.73
2018-03-23T23:56:49.383Z,7.20
2018-03-23T23:59:16.882Z,9.38
